sensor_id;sensor_type;location;lat;lon;timestamp;pressure;altitude;pressure_sealevel;temperature;humidity
56420;BME280;42323;52.170;7.538;2023-01-25T00:00:47;103393.25;;;-0.36;83.78
56420;BME280;42323;52.170;7.538;2023-01-25T00:03:14;103392.41;;;-0.36;84.35
56420;BME280;42323;52.170;7.538;2023-01-25T00:05:40;103385.56;;;-0.37;83.97
56420;BME280;42323;52.170;7.538;2023-01-25T00:08:07;103370.16;;;-0.39;83.81
56420;BME280;42323;52.170;7.538;2023-01-25T00:10:33;103365.88;;;-0.40;84.48
56420;BME280;42323;52.170;7.538;2023-01-25T00:12:59;103377.78;;;-0.36;84.08
56420;BME280;42323;52.170;7.538;2023-01-25T00:15:26;103372.69;;;-0.37;84.08
56420;BME280;42323;52.170;7.538;2023-01-25T00:17:52;103380.41;;;-0.37;84.03
56420;BME280;42323;52.170;7.538;2023-01-25T00:20:19;103362.50;;;-0.42;84.49
56420;BME280;42323;52.170;7.538;2023-01-25T00:22:45;103348.13;;;-0.51;84.76
56420;BME280;42323;52.170;7.538;2023-01-25T00:25:12;103370.06;;;-0.36;84.52
56420;BME280;42323;52.170;7.538;2023-01-25T00:27:39;103358.25;;;-0.43;84.55
56420;BME280;42323;52.170;7.538;2023-01-25T00:30:05;103351.34;;;-0.42;84.29
56420;BME280;42323;52.170;7.538;2023-01-25T00:32:56;103360.72;;;-0.40;84.41
56420;BME280;42323;52.170;7.538;2023-01-25T00:35:29;103354.88;;;-0.46;84.90
56420;BME280;42323;52.170;7.538;2023-01-25T00:38:00;103358.25;;;-0.43;84.92
56420;BME280;42323;52.170;7.538;2023-01-25T00:40:26;103353.09;;;-0.44;84.63
56420;BME280;42323;52.170;7.538;2023-01-25T00:42:53;103350.53;;;-0.44;84.50
56420;BME280;42323;52.170;7.538;2023-01-25T00:45:19;103353.94;;;-0.44;84.27
56420;BME280;42323;52.170;7.538;2023-01-25T00:47:46;103348.84;;;-0.45;84.49
56420;BME280;42323;52.170;7.538;2023-01-25T00:50:12;103350.63;;;-0.47;83.77
56420;BME280;42323;52.170;7.538;2023-01-25T00:52:39;103360.91;;;-0.47;84.24
56420;BME280;42323;52.170;7.538;2023-01-25T00:55:06;103346.44;;;-0.53;83.82
56420;BME280;42323;52.170;7.538;2023-01-25T00:57:33;103333.06;;;-0.67;84.33
56420;BME280;42323;52.170;7.538;2023-01-25T00:59:59;103337.31;;;-0.66;83.90
56420;BME280;42323;52.170;7.538;2023-01-25T01:02:26;103351.75;;;-0.59;84.41
56420;BME280;42323;52.170;7.538;2023-01-25T01:04:52;103357.69;;;-0.57;84.82
56420;BME280;42323;52.170;7.538;2023-01-25T01:07:21;103356.84;;;-0.58;84.27
56420;BME280;42323;52.170;7.538;2023-01-25T01:09:48;103340.63;;;-0.60;84.81
56420;BME280;42323;52.170;7.538;2023-01-25T01:12:14;103352.53;;;-0.56;84.12
56420;BME280;42323;52.170;7.538;2023-01-25T01:14:41;103344.03;;;-0.61;84.50
56420;BME280;42323;52.170;7.538;2023-01-25T01:17:07;103354.44;;;-0.64;84.69
56420;BME280;42323;52.170;7.538;2023-01-25T01:19:34;103336.47;;;-0.67;84.68
56420;BME280;42323;52.170;7.538;2023-01-25T01:22:00;103342.34;;;-0.60;84.74
56420;BME280;42323;52.170;7.538;2023-01-25T01:24:27;103325.28;;;-0.66;84.38
56420;BME280;42323;52.170;7.538;2023-01-25T01:26:53;103337.22;;;-0.62;84.39
56420;BME280;42323;52.170;7.538;2023-01-25T01:29:20;103338.06;;;-0.61;84.24
56420;BME280;42323;52.170;7.538;2023-01-25T01:31:49;103330.63;;;-0.73;84.63
56420;BME280;42323;52.170;7.538;2023-01-25T01:34:17;103332.34;;;-0.72;84.06
56420;BME280;42323;52.170;7.538;2023-01-25T01:36:44;103335.75;;;-0.72;84.51
56420;BME280;42323;52.170;7.538;2023-01-25T01:39:11;103322.03;;;-0.72;84.49
56420;BME280;42323;52.170;7.538;2023-01-25T01:41:38;103320.53;;;-0.81;84.69
56420;BME280;42323;52.170;7.538;2023-01-25T01:44:05;103324.59;;;-0.72;84.94
56420;BME280;42323;52.170;7.538;2023-01-25T01:46:38;103327.13;;;-0.71;85.26
56420;BME280;42323;52.170;7.538;2023-01-25T01:51:47;103322.72;;;-0.66;85.27
56420;BME280;42323;52.170;7.538;2023-01-25T01:54:45;103323.53;;;-0.64;85.30
56420;BME280;42323;52.170;7.538;2023-01-25T01:57:25;103331.28;;;-0.64;84.91
56420;BME280;42323;52.170;7.538;2023-01-25T02:00:03;103324.44;;;-0.66;85.09
56420;BME280;42323;52.170;7.538;2023-01-25T02:02:30;103321.88;;;-0.66;85.43
56420;BME280;42323;52.170;7.538;2023-01-25T02:05:00;103326.97;;;-0.65;85.07
56420;BME280;42323;52.170;7.538;2023-01-25T02:07:36;103325.28;;;-0.64;85.28
56420;BME280;42323;52.170;7.538;2023-01-25T02:10:06;103338.16;;;-0.64;85.61
56420;BME280;42323;52.170;7.538;2023-01-25T02:12:34;103332.19;;;-0.66;85.58
56420;BME280;42323;52.170;7.538;2023-01-25T02:15:02;103334.63;;;-0.62;85.76
56420;BME280;42323;52.170;7.538;2023-01-25T02:17:34;103328.75;;;-0.67;85.56
56420;BME280;42323;52.170;7.538;2023-01-25T02:20:16;103335.56;;;-0.64;85.73
56420;BME280;42323;52.170;7.538;2023-01-25T02:22:52;103340.69;;;-0.63;85.65
56420;BME280;42323;52.170;7.538;2023-01-25T02:25:21;103331.28;;;-0.64;85.41
56420;BME280;42323;52.170;7.538;2023-01-25T02:27:52;103331.50;;;-0.73;84.93
56420;BME280;42323;52.170;7.538;2023-01-25T02:30:20;103331.34;;;-0.67;85.22
56420;BME280;42323;52.170;7.538;2023-01-25T02:32:46;103325.41;;;-0.70;85.20
56420;BME280;42323;52.170;7.538;2023-01-25T02:35:34;103325.34;;;-0.67;85.46
56420;BME280;42323;52.170;7.538;2023-01-25T02:38:01;103317.75;;;-0.73;85.78
56420;BME280;42323;52.170;7.538;2023-01-25T02:40:29;103321.94;;;-0.68;85.59
56420;BME280;42323;52.170;7.538;2023-01-25T02:42:56;103306.66;;;-0.76;85.42
56420;BME280;42323;52.170;7.538;2023-01-25T02:45:26;103294.06;;;-0.86;85.56
56420;BME280;42323;52.170;7.538;2023-01-25T02:47:55;103316.00;;;-0.71;85.41
56420;BME280;42323;52.170;7.538;2023-01-25T02:50:21;103311.75;;;-0.74;85.63
56420;BME280;42323;52.170;7.538;2023-01-25T02:52:48;103308.38;;;-0.76;85.42
56420;BME280;42323;52.170;7.538;2023-01-25T02:55:14;103285.41;;;-0.84;85.52
56420;BME280;42323;52.170;7.538;2023-01-25T02:57:40;103298.94;;;-0.76;85.58
56420;BME280;42323;52.170;7.538;2023-01-25T03:00:07;103297.31;;;-0.80;85.44
56420;BME280;42323;52.170;7.538;2023-01-25T03:02:34;103289.59;;;-0.80;85.30
56420;BME280;42323;52.170;7.538;2023-01-25T03:05:03;103282.75;;;-0.81;85.79
56420;BME280;42323;52.170;7.538;2023-01-25T03:07:30;103277.63;;;-0.81;85.65
56420;BME280;42323;52.170;7.538;2023-01-25T03:09:56;103280.91;;;-0.76;85.78
56420;BME280;42323;52.170;7.538;2023-01-25T03:12:23;103287.78;;;-0.76;85.92
56420;BME280;42323;52.170;7.538;2023-01-25T03:14:49;103282.66;;;-0.76;85.85
56420;BME280;42323;52.170;7.538;2023-01-25T03:17:15;103269.84;;;-0.79;85.75
56420;BME280;42323;52.170;7.538;2023-01-25T03:19:42;103269.00;;;-0.80;85.77
56420;BME280;42323;52.170;7.538;2023-01-25T03:22:08;103259.72;;;-0.87;85.75
56420;BME280;42323;52.170;7.538;2023-01-25T03:24:36;103261.28;;;-0.80;85.69
56420;BME280;42323;52.170;7.538;2023-01-25T03:27:04;103254.56;;;-0.85;85.85
56420;BME280;42323;52.170;7.538;2023-01-25T03:29:36;103250.31;;;-0.86;85.99
56420;BME280;42323;52.170;7.538;2023-01-25T03:32:03;103231.66;;;-0.96;85.91
56420;BME280;42323;52.170;7.538;2023-01-25T03:34:30;103224.66;;;-0.91;85.46
56420;BME280;42323;52.170;7.538;2023-01-25T03:36:56;103245.22;;;-0.89;85.90
56420;BME280;42323;52.170;7.538;2023-01-25T03:39:23;103229.91;;;-0.94;86.18
56420;BME280;42323;52.170;7.538;2023-01-25T03:41:49;103217.16;;;-0.98;86.15
56420;BME280;42323;52.170;7.538;2023-01-25T03:44:16;103231.53;;;-0.91;86.26
56420;BME280;42323;52.170;7.538;2023-01-25T03:46:42;103230.69;;;-0.90;86.53
56420;BME280;42323;52.170;7.538;2023-01-25T03:49:09;103239.03;;;-0.82;86.06
56420;BME280;42323;52.170;7.538;2023-01-25T03:51:36;103240.00;;;-0.86;86.04
56420;BME280;42323;52.170;7.538;2023-01-25T03:54:03;103231.53;;;-0.90;85.79
56420;BME280;42323;52.170;7.538;2023-01-25T03:56:30;103224.72;;;-0.92;86.20
56420;BME280;42323;52.170;7.538;2023-01-25T03:58:56;103217.75;;;-0.89;86.26
56420;BME280;42323;52.170;7.538;2023-01-25T04:01:22;103213.53;;;-0.91;86.47
56420;BME280;42323;52.170;7.538;2023-01-25T04:03:49;103220.38;;;-0.90;86.03
56420;BME280;42323;52.170;7.538;2023-01-25T04:06:15;103222.06;;;-0.89;85.48
56420;BME280;42323;52.170;7.538;2023-01-25T04:08:42;103211.84;;;-0.92;85.34
56420;BME280;42323;52.170;7.538;2023-01-25T04:11:09;103217.16;;;-0.98;85.45
56420;BME280;42323;52.170;7.538;2023-01-25T04:13:36;103201.06;;;-1.07;85.90
56420;BME280;42323;52.170;7.538;2023-01-25T04:16:06;103177.19;;;-1.12;85.38
56420;BME280;42323;52.170;7.538;2023-01-25T04:18:33;103203.56;;;-1.04;85.53
56420;BME280;42323;52.170;7.538;2023-01-25T04:20:59;103195.91;;;-1.07;85.62
56420;BME280;42323;52.170;7.538;2023-01-25T04:23:26;103196.00;;;-1.11;85.95
56420;BME280;42323;52.170;7.538;2023-01-25T04:25:56;103198.41;;;-1.04;85.72
56420;BME280;42323;52.170;7.538;2023-01-25T04:28:23;103197.59;;;-1.06;85.60
56420;BME280;42323;52.170;7.538;2023-01-25T04:30:54;103182.50;;;-1.21;85.54
56420;BME280;42323;52.170;7.538;2023-01-25T04:33:21;103185.97;;;-1.22;86.24
56420;BME280;42323;52.170;7.538;2023-01-25T04:35:48;103202.13;;;-1.15;86.18
56420;BME280;42323;52.170;7.538;2023-01-25T04:38:15;103190.28;;;-1.22;86.57
56420;BME280;42323;52.170;7.538;2023-01-25T04:40:42;103205.47;;;-1.12;86.22
56420;BME280;42323;52.170;7.538;2023-01-25T04:43:11;103179.09;;;-1.20;86.29
56420;BME280;42323;52.170;7.538;2023-01-25T04:45:38;103191.66;;;-1.08;86.57
56420;BME280;42323;52.170;7.538;2023-01-25T04:48:06;103192.50;;;-1.09;86.60
56420;BME280;42323;52.170;7.538;2023-01-25T04:50:39;103189.81;;;-1.04;86.80
56420;BME280;42323;52.170;7.538;2023-01-25T04:53:07;103170.41;;;-1.16;86.42
56420;BME280;42323;52.170;7.538;2023-01-25T04:55:33;103180.50;;;-1.08;86.55
56420;BME280;42323;52.170;7.538;2023-01-25T04:58:01;103182.88;;;-1.01;86.67
56420;BME280;42323;52.170;7.538;2023-01-25T05:00:28;103186.34;;;-1.02;86.63
56420;BME280;42323;52.170;7.538;2023-01-25T05:02:55;103184.72;;;-1.06;86.79
56420;BME280;42323;52.170;7.538;2023-01-25T05:05:21;103183.78;;;-1.02;85.74
56420;BME280;42323;52.170;7.538;2023-01-25T05:07:48;103192.28;;;-0.99;85.37
56420;BME280;42323;52.170;7.538;2023-01-25T05:10:14;103186.41;;;-1.05;85.46
56420;BME280;42323;52.170;7.538;2023-01-25T05:12:41;103178.25;;;-1.20;85.68
56420;BME280;42323;52.170;7.538;2023-01-25T05:15:07;103187.59;;;-1.18;86.13
56420;BME280;42323;52.170;7.538;2023-01-25T05:17:34;103197.88;;;-1.18;85.97
56420;BME280;42323;52.170;7.538;2023-01-25T05:20:01;103198.88;;;-1.23;86.12
56420;BME280;42323;52.170;7.538;2023-01-25T05:22:28;103199.78;;;-1.26;86.34
56420;BME280;42323;52.170;7.538;2023-01-25T05:24:54;103188.63;;;-1.25;86.71
56420;BME280;42323;52.170;7.538;2023-01-25T05:27:21;103189.38;;;-1.20;86.36
56420;BME280;42323;52.170;7.538;2023-01-25T05:29:48;103194.53;;;-1.21;86.04
56420;BME280;42323;52.170;7.538;2023-01-25T05:32:17;103184.34;;;-1.24;86.17
56420;BME280;42323;52.170;7.538;2023-01-25T05:34:44;103187.06;;;-1.32;85.80
56420;BME280;42323;52.170;7.538;2023-01-25T05:37:13;103162.59;;;-1.48;86.62
56420;BME280;42323;52.170;7.538;2023-01-25T05:39:40;103180.34;;;-1.38;86.58
56420;BME280;42323;52.170;7.538;2023-01-25T05:42:15;103184.50;;;-1.32;86.54
56420;BME280;42323;52.170;7.538;2023-01-25T05:44:42;103177.63;;;-1.32;86.89
56420;BME280;42323;52.170;7.538;2023-01-25T05:47:14;103172.44;;;-1.29;86.69
56420;BME280;42323;52.170;7.538;2023-01-25T05:49:41;103178.44;;;-1.30;86.51
56420;BME280;42323;52.170;7.538;2023-01-25T05:52:15;103177.59;;;-1.30;86.94
56420;BME280;42323;52.170;7.538;2023-01-25T05:54:41;103171.28;;;-1.17;85.98
56420;BME280;42323;52.170;7.538;2023-01-25T05:57:08;103174.03;;;-1.24;85.87
56420;BME280;42323;52.170;7.538;2023-01-25T05:59:35;103166.41;;;-1.28;85.65
56420;BME280;42323;52.170;7.538;2023-01-25T06:02:01;103172.44;;;-1.30;85.87
56420;BME280;42323;52.170;7.538;2023-01-25T06:04:28;103187.84;;;-1.29;86.23
56420;BME280;42323;52.170;7.538;2023-01-25T06:06:54;103185.41;;;-1.33;86.64
56420;BME280;42323;52.170;7.538;2023-01-25T06:09:20;103185.41;;;-1.33;87.02
56420;BME280;42323;52.170;7.538;2023-01-25T06:11:48;103182.72;;;-1.30;87.02
56420;BME280;42323;52.170;7.538;2023-01-25T06:14:15;103184.44;;;-1.29;87.42
56420;BME280;42323;52.170;7.538;2023-01-25T06:16:41;103190.16;;;-1.18;86.87
56420;BME280;42323;52.170;7.538;2023-01-25T06:19:08;103179.31;;;-1.29;87.23
56420;BME280;42323;52.170;7.538;2023-01-25T06:21:34;103195.41;;;-1.22;87.11
56420;BME280;42323;52.170;7.538;2023-01-25T06:24:04;103197.97;;;-1.22;87.26
56420;BME280;42323;52.170;7.538;2023-01-25T06:26:31;103192.00;;;-1.23;87.47
56420;BME280;42323;52.170;7.538;2023-01-25T06:28:57;103185.94;;;-1.20;86.92
56420;BME280;42323;52.170;7.538;2023-01-25T06:31:24;103185.84;;;-1.17;87.28
56420;BME280;42323;52.170;7.538;2023-01-25T06:33:51;103173.16;;;-1.23;85.76
56420;BME280;42323;52.170;7.538;2023-01-25T06:36:19;103169.00;;;-1.29;86.19
56420;BME280;42323;52.170;7.538;2023-01-25T06:38:50;103178.44;;;-1.30;86.57
56420;BME280;42323;52.170;7.538;2023-01-25T06:41:18;103168.91;;;-1.26;87.27
56420;BME280;42323;52.170;7.538;2023-01-25T06:43:45;103168.91;;;-1.24;86.92
56420;BME280;42323;52.170;7.538;2023-01-25T06:46:13;103168.00;;;-1.23;88.04
56420;BME280;42323;52.170;7.538;2023-01-25T06:48:40;103157.72;;;-1.23;87.59
56420;BME280;42323;52.170;7.538;2023-01-25T06:51:10;103153.50;;;-1.26;87.08
56420;BME280;42323;52.170;7.538;2023-01-25T06:53:39;103140.84;;;-1.35;87.23
56420;BME280;42323;52.170;7.538;2023-01-25T06:56:09;103160.38;;;-1.27;87.16
56420;BME280;42323;52.170;7.538;2023-01-25T06:58:37;103167.94;;;-1.20;86.59
56420;BME280;42323;52.170;7.538;2023-01-25T07:01:11;103166.50;;;-1.32;86.53
56420;BME280;42323;52.170;7.538;2023-01-25T07:03:38;103167.34;;;-1.32;86.43
56420;BME280;42323;52.170;7.538;2023-01-25T07:06:06;103158.13;;;-1.40;85.96
56420;BME280;42323;52.170;7.538;2023-01-25T07:08:34;103176.00;;;-1.36;86.03
56420;BME280;42323;52.170;7.538;2023-01-25T07:11:03;103170.25;;;-1.47;86.74
56420;BME280;42323;52.170;7.538;2023-01-25T07:13:32;103171.03;;;-1.42;86.77
56420;BME280;42323;52.170;7.538;2023-01-25T07:16:01;103161.72;;;-1.47;86.88
56420;BME280;42323;52.170;7.538;2023-01-25T07:18:29;103161.69;;;-1.46;86.84
56420;BME280;42323;52.170;7.538;2023-01-25T07:21:07;103150.47;;;-1.43;86.48
56420;BME280;42323;52.170;7.538;2023-01-25T07:23:33;103166.72;;;-1.41;86.55
56420;BME280;42323;52.170;7.538;2023-01-25T07:26:01;103139.63;;;-1.55;86.68
56420;BME280;42323;52.170;7.538;2023-01-25T07:28:27;103155.63;;;-1.43;87.02
56420;BME280;42323;52.170;7.538;2023-01-25T07:30:54;103148.00;;;-1.46;87.04
56420;BME280;42323;52.170;7.538;2023-01-25T07:33:20;103140.28;;;-1.46;87.18
56420;BME280;42323;52.170;7.538;2023-01-25T07:35:47;103147.84;;;-1.40;86.86
56420;BME280;42323;52.170;7.538;2023-01-25T07:38:16;103148.63;;;-1.37;86.85
56420;BME280;42323;52.170;7.538;2023-01-25T07:40:42;103135.75;;;-1.37;86.79
56420;BME280;42323;52.170;7.538;2023-01-25T07:43:09;103145.03;;;-1.31;86.41
56420;BME280;42323;52.170;7.538;2023-01-25T07:45:35;103146.88;;;-1.36;86.40
56420;BME280;42323;52.170;7.538;2023-01-25T07:48:07;103148.00;;;-1.46;86.86
56420;BME280;42323;52.170;7.538;2023-01-25T07:50:35;103147.94;;;-1.45;86.93
56420;BME280;42323;52.170;7.538;2023-01-25T07:53:02;103146.38;;;-1.50;87.43
56420;BME280;42323;52.170;7.538;2023-01-25T07:55:28;103146.28;;;-1.47;86.37
56420;BME280;42323;52.170;7.538;2023-01-25T07:57:54;103133.66;;;-1.57;87.13
56420;BME280;42323;52.170;7.538;2023-01-25T08:00:21;103138.69;;;-1.52;86.57
56420;BME280;42323;52.170;7.538;2023-01-25T08:02:50;103125.03;;;-1.54;87.05
56420;BME280;42323;52.170;7.538;2023-01-25T08:05:17;103116.53;;;-1.58;87.41
56420;BME280;42323;52.170;7.538;2023-01-25T08:07:44;103125.59;;;-1.43;87.17
56420;BME280;42323;52.170;7.538;2023-01-25T08:10:11;103128.22;;;-1.44;86.85
56420;BME280;42323;52.170;7.538;2023-01-25T08:12:37;103120.66;;;-1.50;87.39
56420;BME280;42323;52.170;7.538;2023-01-25T08:15:04;103123.97;;;-1.45;87.49
56420;BME280;42323;52.170;7.538;2023-01-25T08:17:32;103133.31;;;-1.43;86.89
56420;BME280;42323;52.170;7.538;2023-01-25T08:19:59;103129.13;;;-1.45;86.73
56420;BME280;42323;52.170;7.538;2023-01-25T08:22:29;103131.00;;;-1.54;86.62
56420;BME280;42323;52.170;7.538;2023-01-25T08:24:55;103124.31;;;-1.61;86.87
56420;BME280;42323;52.170;7.538;2023-01-25T08:27:22;103101.56;;;-1.78;87.11
56420;BME280;42323;52.170;7.538;2023-01-25T08:29:49;103120.94;;;-1.63;87.67
56420;BME280;42323;52.170;7.538;2023-01-25T08:32:15;103130.19;;;-1.54;87.62
56420;BME280;42323;52.170;7.538;2023-01-25T08:34:42;103129.13;;;-1.47;87.74
56420;BME280;42323;52.170;7.538;2023-01-25T08:37:08;103108.84;;;-1.58;87.28
56420;BME280;42323;52.170;7.538;2023-01-25T08:39:35;103127.44;;;-1.46;87.10
56420;BME280;42323;52.170;7.538;2023-01-25T08:42:01;103131.63;;;-1.42;87.15
56420;BME280;42323;52.170;7.538;2023-01-25T08:44:28;103122.03;;;-1.36;87.52
56420;BME280;42323;52.170;7.538;2023-01-25T08:46:54;103121.06;;;-1.32;87.46
56420;BME280;42323;52.170;7.538;2023-01-25T08:49:20;103118.31;;;-1.24;86.98
56420;BME280;42323;52.170;7.538;2023-01-25T08:51:47;103109.78;;;-1.26;85.89
56420;BME280;42323;52.170;7.538;2023-01-25T08:54:15;103112.50;;;-1.32;86.40
56420;BME280;42323;52.170;7.538;2023-01-25T08:56:41;103097.38;;;-1.44;86.59
56420;BME280;42323;52.170;7.538;2023-01-25T08:59:11;103109.94;;;-1.32;86.36
56420;BME280;42323;52.170;7.538;2023-01-25T09:01:38;103099.88;;;-1.41;87.06
56420;BME280;42323;52.170;7.538;2023-01-25T09:04:04;103100.72;;;-1.41;86.66
56420;BME280;42323;52.170;7.538;2023-01-25T09:06:31;103107.31;;;-1.31;87.04
56420;BME280;42323;52.170;7.538;2023-01-25T09:08:58;103095.53;;;-1.39;87.03
56420;BME280;42323;52.170;7.538;2023-01-25T09:11:32;103099.66;;;-1.32;86.70
56420;BME280;42323;52.170;7.538;2023-01-25T09:13:59;103095.25;;;-1.27;86.43
56420;BME280;42323;52.170;7.538;2023-01-25T09:16:26;103097.03;;;-1.31;86.88
56420;BME280;42323;52.170;7.538;2023-01-25T09:19:01;103088.53;;;-1.33;86.67
56420;BME280;42323;52.170;7.538;2023-01-25T09:21:29;103085.97;;;-1.33;86.28
56420;BME280;42323;52.170;7.538;2023-01-25T09:23:56;103090.81;;;-1.22;86.67
56420;BME280;42323;52.170;7.538;2023-01-25T09:26:34;103097.69;;;-1.22;86.20
56420;BME280;42323;52.170;7.538;2023-01-25T09:29:02;103095.25;;;-1.27;86.40
56420;BME280;42323;52.170;7.538;2023-01-25T09:31:29;103086.72;;;-1.29;86.54
56420;BME280;42323;52.170;7.538;2023-01-25T09:33:55;103086.69;;;-1.28;86.38
56420;BME280;42323;52.170;7.538;2023-01-25T09:36:23;103083.22;;;-1.27;86.31
56420;BME280;42323;52.170;7.538;2023-01-25T09:38:49;103084.06;;;-1.26;85.99
56420;BME280;42323;52.170;7.538;2023-01-25T09:47:12;103076.47;;;-1.31;86.33
56420;BME280;42323;52.170;7.538;2023-01-25T09:55:26;103074.63;;;-1.26;86.05
56420;BME280;42323;52.170;7.538;2023-01-25T09:57:54;103072.81;;;-1.22;84.66
56420;BME280;42323;52.170;7.538;2023-01-25T10:00:31;103050.16;;;-1.40;84.83
56420;BME280;42323;52.170;7.538;2023-01-25T10:03:21;103062.84;;;-1.34;84.87
56420;BME280;42323;52.170;7.538;2023-01-25T10:05:53;103057.69;;;-1.34;85.72
56420;BME280;42323;52.170;7.538;2023-01-25T10:08:31;103053.44;;;-1.35;85.09
56420;BME280;42323;52.170;7.538;2023-01-25T10:11:13;103060.13;;;-1.28;85.36
56420;BME280;42323;52.170;7.538;2023-01-25T10:13:44;103045.00;;;-1.40;85.42
56420;BME280;42323;52.170;7.538;2023-01-25T10:22:25;103052.28;;;-1.23;85.23
56420;BME280;42323;52.170;7.538;2023-01-25T10:27:57;103048.06;;;-1.26;85.43
56420;BME280;42323;52.170;7.538;2023-01-25T10:30:29;103034.53;;;-1.33;85.27
56420;BME280;42323;52.170;7.538;2023-01-25T10:33:05;103039.50;;;-1.25;85.66
56420;BME280;42323;52.170;7.538;2023-01-25T10:35:36;103036.88;;;-1.23;85.23
56420;BME280;42323;52.170;7.538;2023-01-25T10:38:39;103032.69;;;-1.28;85.06
56420;BME280;42323;52.170;7.538;2023-01-25T10:43:54;103017.63;;;-1.43;85.02
56420;BME280;42323;52.170;7.538;2023-01-25T10:46:49;103027.66;;;-1.32;85.63
56420;BME280;42323;52.170;7.538;2023-01-25T10:49:28;103013.19;;;-1.36;85.53
56420;BME280;42323;52.170;7.538;2023-01-25T10:52:12;103011.41;;;-1.34;85.04
56420;BME280;42323;52.170;7.538;2023-01-25T10:54:39;103016.59;;;-1.36;85.90
56420;BME280;42323;52.170;7.538;2023-01-25T10:57:07;103024.13;;;-1.28;86.01
56420;BME280;42323;52.170;7.538;2023-01-25T10:59:34;103001.66;;;-1.21;85.59
56420;BME280;42323;52.170;7.538;2023-01-25T11:02:39;102949.25;;;-1.48;85.05
56420;BME280;42323;52.170;7.538;2023-01-25T11:08:16;102959.78;;;-1.27;84.80
56420;BME280;42323;52.170;7.538;2023-01-25T11:10:47;102947.97;;;-1.32;84.57
56420;BME280;42323;52.170;7.538;2023-01-25T11:15:49;102962.56;;;-1.34;84.20
56420;BME280;42323;52.170;7.538;2023-01-25T11:18:27;102927.06;;;-1.53;84.62
56420;BME280;42323;52.170;7.538;2023-01-25T11:21:12;102955.66;;;-1.32;85.03
56420;BME280;42323;52.170;7.538;2023-01-25T11:26:39;102940.91;;;-1.26;84.65
56420;BME280;42323;52.170;7.538;2023-01-25T11:31:36;102890.75;;;-1.40;85.20
56420;BME280;42323;52.170;7.538;2023-01-25T11:34:08;102927.84;;;-1.18;84.91
56420;BME280;42323;52.170;7.538;2023-01-25T11:39:34;102918.38;;;-1.16;84.98
56420;BME280;42323;52.170;7.538;2023-01-25T11:47:23;102900.94;;;-1.06;84.68
56420;BME280;42323;52.170;7.538;2023-01-25T11:53:09;102881.25;;;-1.07;84.64
56420;BME280;42323;52.170;7.538;2023-01-25T11:56:00;102881.19;;;-1.06;84.95
56420;BME280;42323;52.170;7.538;2023-01-25T11:58:37;102872.63;;;-1.06;84.82
56420;BME280;42323;52.170;7.538;2023-01-25T12:01:16;102874.09;;;-0.97;84.50
56420;BME280;42323;52.170;7.538;2023-01-25T12:06:55;102856.53;;;-1.13;84.57
56420;BME280;42323;52.170;7.538;2023-01-25T12:10:02;102832.53;;;-1.12;84.27
56420;BME280;42323;52.170;7.538;2023-01-25T12:12:45;102834.25;;;-1.12;84.23
56420;BME280;42323;52.170;7.538;2023-01-25T12:15:41;102827.53;;;-1.18;84.52
56420;BME280;42323;52.170;7.538;2023-01-25T12:21:03;102810.44;;;-1.19;84.10
56420;BME280;42323;52.170;7.538;2023-01-25T12:29:57;102798.56;;;-1.23;84.70
56420;BME280;42323;52.170;7.538;2023-01-25T12:32:36;102790.84;;;-1.23;83.80
56420;BME280;42323;52.170;7.538;2023-01-25T12:35:33;102783.03;;;-1.20;83.75
56420;BME280;42323;52.170;7.538;2023-01-25T12:38:03;102772.91;;;-1.24;83.74
56420;BME280;42323;52.170;7.538;2023-01-25T12:40:45;102758.41;;;-1.27;83.82
56420;BME280;42323;52.170;7.538;2023-01-25T12:43:19;102762.63;;;-1.26;84.00
56420;BME280;42323;52.170;7.538;2023-01-25T12:45:48;102751.38;;;-1.22;84.33
56420;BME280;42323;52.170;7.538;2023-01-25T12:48:29;102748.78;;;-1.20;84.24
56420;BME280;42323;52.170;7.538;2023-01-25T12:50:58;102736.09;;;-1.27;83.97
56420;BME280;42323;52.170;7.538;2023-01-25T12:56:01;102673.44;;;-1.50;84.37
56420;BME280;42323;52.170;7.538;2023-01-25T12:58:37;102694.50;;;-1.39;84.17
56420;BME280;42323;52.170;7.538;2023-01-25T13:04:22;102709.09;;;-1.13;84.10
56420;BME280;42323;52.170;7.538;2023-01-25T13:07:02;102702.44;;;-1.19;83.90
56420;BME280;42323;52.170;7.538;2023-01-25T13:09:44;102703.34;;;-1.21;84.23
56420;BME280;42323;52.170;7.538;2023-01-25T13:12:17;102699.13;;;-1.22;83.90
56420;BME280;42323;52.170;7.538;2023-01-25T13:14:43;102700.00;;;-1.23;84.52
56420;BME280;42323;52.170;7.538;2023-01-25T13:22:03;102688.34;;;-1.34;84.92
56420;BME280;42323;52.170;7.538;2023-01-25T13:24:32;102697.34;;;-1.20;84.43
56420;BME280;42323;52.170;7.538;2023-01-25T13:27:04;102689.22;;;-1.35;85.41
56420;BME280;42323;52.170;7.538;2023-01-25T13:32:38;102686.78;;;-1.39;85.10
56420;BME280;42323;52.170;7.538;2023-01-25T13:35:00;102690.16;;;-1.37;85.45
56420;BME280;42323;52.170;7.538;2023-01-25T13:37:29;102665.59;;;-1.47;84.83
56420;BME280;42323;52.170;7.538;2023-01-25T13:42:40;102684.19;;;-1.38;84.91
56420;BME280;42323;52.170;7.538;2023-01-25T13:45:16;102663.94;;;-1.48;85.35
56420;BME280;42323;52.170;7.538;2023-01-25T13:47:58;102663.78;;;-1.44;85.13
56420;BME280;42323;52.170;7.538;2023-01-25T13:50:28;102673.69;;;-1.32;84.91
56420;BME280;42323;52.170;7.538;2023-01-25T13:53:05;102659.47;;;-1.43;85.19
56420;BME280;42323;52.170;7.538;2023-01-25T13:55:40;102654.34;;;-1.43;85.29
56420;BME280;42323;52.170;7.538;2023-01-25T13:58:09;102647.75;;;-1.52;85.23
56420;BME280;42323;52.170;7.538;2023-01-25T14:00:36;102666.34;;;-1.44;85.52
56420;BME280;42323;52.170;7.538;2023-01-25T14:03:04;102659.63;;;-1.48;85.59
56420;BME280;42323;52.170;7.538;2023-01-25T14:05:31;102660.47;;;-1.47;85.85
56420;BME280;42323;52.170;7.538;2023-01-25T14:07:58;102650.16;;;-1.46;85.97
56420;BME280;42323;52.170;7.538;2023-01-25T14:10:26;102638.16;;;-1.45;85.42
56420;BME280;42323;52.170;7.538;2023-01-25T14:12:57;102657.88;;;-1.46;86.05
56420;BME280;42323;52.170;7.538;2023-01-25T14:15:30;102657.91;;;-1.47;85.35
56420;BME280;42323;52.170;7.538;2023-01-25T14:18:16;102645.94;;;-1.48;85.87
56420;BME280;42323;52.170;7.538;2023-01-25T14:20:50;102657.06;;;-1.48;85.76